KLM959 EHAM-EGNT
Flight info
| Callsign | KLM959 |
|---|---|
| Flight time | 0h 57m |
| Altitude | 34000 |
| Route | BERGI L602 NALAX L46 RIMTO |
| Aircraft | B737/M-SDE2E3FGHIRWXY/LB1 |
Departure
| Time | 2026-05-05 20:59 |
|---|---|
| Airport | Amsterdam Airport Schiphol (EHAM) |
Arrival
| Time | 2026-05-05 21:57 |
|---|---|
| Airport | Newcastle International Airport (EGNT) |
| Time | Latitude | Longitude | Altitude | Speed | Heading |
|---|---|---|---|---|---|
| 2026-05-05 20:31 | 52.30430 | 4.76669 | -2 ft | 0 kts | 28° |
| 2026-05-05 20:31 | 52.30433 | 4.76671 | -2 ft | 0 kts | 28° |
| 2026-05-05 20:48 | 52.30424 | 4.76663 | -2 ft | 4 kts | 29° |
| 2026-05-05 20:49 | 52.30402 | 4.76643 | -2 ft | 2 kts | 27° |
| 2026-05-05 20:49 | 52.30384 | 4.76625 | -2 ft | 4 kts | 59° |
| 2026-05-05 20:49 | 52.30380 | 4.76602 | -2 ft | 4 kts | 102° |
| 2026-05-05 20:49 | 52.30387 | 4.76570 | -2 ft | 1 kts | 119° |
| 2026-05-05 20:51 | 52.30385 | 4.76575 | -2 ft | 2 kts | 122° |
| 2026-05-05 20:52 | 52.30368 | 4.76592 | -2 ft | 5 kts | 166° |
| 2026-05-05 20:52 | 52.30322 | 4.76570 | -2 ft | 9 kts | 213° |
| 2026-05-05 20:52 | 52.30272 | 4.76467 | -2 ft | 13 kts | 237° |
| 2026-05-05 20:52 | 52.30223 | 4.76341 | -2 ft | 14 kts | 237° |
| 2026-05-05 20:53 | 52.30183 | 4.76237 | -2 ft | 13 kts | 238° |
| 2026-05-05 20:53 | 52.30154 | 4.76161 | -2 ft | 13 kts | 238° |
| 2026-05-05 20:54 | 52.30108 | 4.76038 | -2 ft | 13 kts | 238° |
| 2026-05-05 20:54 | 52.30062 | 4.75919 | -2 ft | 12 kts | 238° |
| 2026-05-05 20:54 | 52.30013 | 4.75792 | -2 ft | 14 kts | 238° |
| 2026-05-05 20:54 | 52.29959 | 4.75649 | -2 ft | 16 kts | 238° |
| 2026-05-05 20:55 | 52.29899 | 4.75492 | -2 ft | 17 kts | 238° |
| 2026-05-05 20:55 | 52.29839 | 4.75319 | -2 ft | 18 kts | 254° |
| 2026-05-05 20:55 | 52.29870 | 4.75138 | -2 ft | 17 kts | 311° |
| 2026-05-05 20:55 | 52.29948 | 4.74993 | -2 ft | 17 kts | 311° |
| 2026-05-05 20:56 | 52.30023 | 4.74858 | -2 ft | 16 kts | 311° |
| 2026-05-05 20:56 | 52.30096 | 4.74724 | 2 ft | 15 kts | 311° |
| 2026-05-05 20:56 | 52.30166 | 4.74596 | 9 ft | 15 kts | 311° |
| 2026-05-05 20:56 | 52.30232 | 4.74470 | 9 ft | 14 kts | 311° |
| 2026-05-05 20:57 | 52.30298 | 4.74347 | 6 ft | 16 kts | 311° |
| 2026-05-05 20:57 | 52.30349 | 4.74250 | -2 ft | 3 kts | 310° |
| 2026-05-05 20:57 | 52.30383 | 4.74185 | -2 ft | 12 kts | 310° |
| 2026-05-05 20:57 | 52.30436 | 4.74076 | -2 ft | 12 kts | 291° |
| 2026-05-05 20:58 | 52.30409 | 4.73947 | -2 ft | 12 kts | 260° |
| 2026-05-05 20:58 | 52.30416 | 4.73794 | -4 ft | 15 kts | 287° |
| 2026-05-05 20:58 | 52.30509 | 4.73764 | -4 ft | 15 kts | 4° |
| 2026-05-05 20:58 | 52.30680 | 4.73780 | -3 ft | 57 kts | 3° |
| 2026-05-05 20:59 | 52.31353 | 4.73842 | -3 ft | 134 kts | 5° |
| 2026-05-05 20:59 | 52.32462 | 4.73886 | 239 ft | 177 kts | 2° |
| 2026-05-05 20:59 | 52.33702 | 4.73927 | 1324 ft | 178 kts | 3° |
| 2026-05-05 20:59 | 52.34936 | 4.73961 | 2344 ft | 182 kts | 11° |
| 2026-05-05 21:00 | 52.36181 | 4.74728 | 2821 ft | 205 kts | 29° |
| 2026-05-05 21:00 | 52.37564 | 4.75875 | 3225 ft | 235 kts | 26° |
| 2026-05-05 21:00 | 52.38873 | 4.77526 | 4175 ft | 242 kts | 52° |
| 2026-05-05 21:00 | 52.39880 | 4.79760 | 5256 ft | 247 kts | 50° |
| 2026-05-05 21:01 | 52.41013 | 4.81934 | 6217 ft | 256 kts | 47° |
| 2026-05-05 21:01 | 52.42231 | 4.84101 | 7155 ft | 261 kts | 45° |
| 2026-05-05 21:01 | 52.43687 | 4.85811 | 8058 ft | 265 kts | 18° |
| 2026-05-05 21:01 | 52.45549 | 4.86248 | 8997 ft | 270 kts | 358° |
| 2026-05-05 21:02 | 52.47436 | 4.86077 | 9842 ft | 279 kts | 355° |
| 2026-05-05 21:02 | 52.49412 | 4.85858 | 10529 ft | 294 kts | 355° |
| 2026-05-05 21:02 | 52.51556 | 4.85621 | 10759 ft | 323 kts | 354° |
| 2026-05-05 21:02 | 52.53745 | 4.84546 | 11270 ft | 337 kts | 329° |
| 2026-05-05 21:03 | 52.55526 | 4.82056 | 12147 ft | 340 kts | 308° |
| 2026-05-05 21:03 | 52.56938 | 4.78911 | 13070 ft | 344 kts | 304° |
| 2026-05-05 21:03 | 52.58299 | 4.75642 | 13941 ft | 349 kts | 303° |
| 2026-05-05 21:03 | 52.59668 | 4.72304 | 14759 ft | 355 kts | 303° |
| 2026-05-05 21:04 | 52.61062 | 4.68922 | 15613 ft | 360 kts | 304° |
| 2026-05-05 21:04 | 52.62484 | 4.65501 | 16455 ft | 365 kts | 304° |
| 2026-05-05 21:04 | 52.63934 | 4.62036 | 17305 ft | 370 kts | 304° |
| 2026-05-05 21:04 | 52.65408 | 4.58525 | 18156 ft | 375 kts | 304° |
| 2026-05-05 21:05 | 52.66906 | 4.54966 | 18877 ft | 380 kts | 304° |
| 2026-05-05 21:05 | 52.68420 | 4.51364 | 19646 ft | 384 kts | 303° |
| 2026-05-05 21:05 | 52.69943 | 4.47739 | 20456 ft | 386 kts | 303° |
| 2026-05-05 21:05 | 52.71480 | 4.44077 | 21181 ft | 391 kts | 303° |
| 2026-05-05 21:06 | 52.73035 | 4.40365 | 21887 ft | 396 kts | 303° |
| 2026-05-05 21:06 | 52.74606 | 4.36605 | 22587 ft | 400 kts | 302° |
| 2026-05-05 21:06 | 52.76089 | 4.32693 | 23277 ft | 404 kts | 298° |
| 2026-05-05 21:06 | 52.77480 | 4.28642 | 23882 ft | 408 kts | 297° |
| 2026-05-05 21:07 | 52.78847 | 4.24517 | 24461 ft | 411 kts | 296° |
| 2026-05-05 21:07 | 52.80218 | 4.20354 | 25048 ft | 414 kts | 296° |
| 2026-05-05 21:07 | 52.81606 | 4.16162 | 25615 ft | 418 kts | 296° |
| 2026-05-05 21:07 | 52.83013 | 4.11937 | 26166 ft | 421 kts | 296° |
| 2026-05-05 21:08 | 52.84438 | 4.07677 | 26694 ft | 425 kts | 296° |
| 2026-05-05 21:08 | 52.85876 | 4.03387 | 27236 ft | 428 kts | 296° |
| 2026-05-05 21:08 | 52.87326 | 3.99060 | 27751 ft | 432 kts | 296° |
| 2026-05-05 21:08 | 52.88787 | 3.94695 | 28231 ft | 435 kts | 296° |
| 2026-05-05 21:09 | 52.90259 | 3.90291 | 28711 ft | 439 kts | 296° |
| 2026-05-05 21:09 | 52.91741 | 3.85847 | 29186 ft | 442 kts | 295° |
| 2026-05-05 21:09 | 52.93232 | 3.81370 | 29655 ft | 446 kts | 295° |
| 2026-05-05 21:09 | 52.94732 | 3.76856 | 30106 ft | 448 kts | 295° |
| 2026-05-05 21:10 | 52.96222 | 3.72372 | 30924 ft | 438 kts | 294° |
| 2026-05-05 21:10 | 52.97677 | 3.67982 | 31661 ft | 433 kts | 294° |
| 2026-05-05 21:10 | 52.99128 | 3.63590 | 32029 ft | 436 kts | 294° |
| 2026-05-05 21:10 | 53.00570 | 3.59220 | 32333 ft | 439 kts | 294° |
| 2026-05-05 21:11 | 53.02038 | 3.54773 | 32798 ft | 439 kts | 294° |
| 2026-05-05 21:11 | 53.03501 | 3.50367 | 33485 ft | 432 kts | 294° |
| 2026-05-05 21:11 | 53.04948 | 3.46009 | 33949 ft | 432 kts | 294° |
| 2026-05-05 21:11 | 53.06411 | 3.41590 | 33937 ft | 439 kts | 294° |
| 2026-05-05 21:12 | 53.09330 | 3.32697 | 33944 ft | 434 kts | 291° |
| 2026-05-05 21:12 | 53.11153 | 3.23374 | 33966 ft | 421 kts | 277° |
| 2026-05-05 21:13 | 53.12366 | 3.13817 | 33952 ft | 423 kts | 277° |
| 2026-05-05 21:13 | 53.13592 | 3.04216 | 33981 ft | 425 kts | 278° |
| 2026-05-05 21:14 | 53.14848 | 2.94583 | 33969 ft | 426 kts | 278° |
| 2026-05-05 21:14 | 53.16108 | 2.84929 | 33966 ft | 427 kts | 278° |
| 2026-05-05 21:15 | 53.17364 | 2.75258 | 33967 ft | 426 kts | 278° |
| 2026-05-05 21:15 | 53.18609 | 2.65599 | 33966 ft | 426 kts | 278° |
| 2026-05-05 21:16 | 53.19843 | 2.55961 | 33968 ft | 424 kts | 277° |
| 2026-05-05 21:16 | 53.21065 | 2.46338 | 33976 ft | 424 kts | 278° |
| 2026-05-05 21:17 | 53.22271 | 2.36697 | 33975 ft | 425 kts | 278° |
| 2026-05-05 21:17 | 53.23471 | 2.27033 | 33986 ft | 425 kts | 278° |
| 2026-05-05 21:18 | 53.24665 | 2.17368 | 33973 ft | 425 kts | 278° |
| 2026-05-05 21:18 | 53.25841 | 2.07780 | 33972 ft | 424 kts | 278° |
| 2026-05-05 21:19 | 53.27015 | 1.98143 | 33990 ft | 423 kts | 278° |
| 2026-05-05 21:19 | 53.28176 | 1.88544 | 33979 ft | 421 kts | 278° |
| 2026-05-05 21:20 | 53.29324 | 1.78980 | 33984 ft | 419 kts | 278° |
| 2026-05-05 21:20 | 53.30459 | 1.69457 | 33985 ft | 418 kts | 278° |
| 2026-05-05 21:21 | 53.31588 | 1.59921 | 33995 ft | 418 kts | 278° |
| 2026-05-05 21:21 | 53.32712 | 1.50367 | 34004 ft | 419 kts | 279° |
| 2026-05-05 21:22 | 53.34042 | 1.40856 | 34003 ft | 421 kts | 281° |
| 2026-05-05 21:22 | 53.35469 | 1.31353 | 33998 ft | 421 kts | 281° |
| 2026-05-05 21:23 | 53.36863 | 1.21883 | 34006 ft | 422 kts | 281° |
| 2026-05-05 21:23 | 53.38240 | 1.12326 | 34006 ft | 422 kts | 281° |
| 2026-05-05 21:24 | 53.39603 | 1.02750 | 34015 ft | 423 kts | 281° |
| 2026-05-05 21:24 | 53.40961 | 0.93160 | 34008 ft | 423 kts | 281° |
| 2026-05-05 21:25 | 53.42311 | 0.83546 | 34011 ft | 424 kts | 281° |
| 2026-05-05 21:25 | 53.43656 | 0.73915 | 34012 ft | 424 kts | 281° |
| 2026-05-05 21:26 | 53.44995 | 0.64274 | 34017 ft | 425 kts | 281° |
| 2026-05-05 21:26 | 53.46327 | 0.54622 | 34024 ft | 425 kts | 281° |
| 2026-05-05 21:27 | 53.47654 | 0.44959 | 34022 ft | 425 kts | 281° |
| 2026-05-05 21:27 | 53.48972 | 0.35287 | 34025 ft | 425 kts | 281° |
| 2026-05-05 21:28 | 53.50292 | 0.25613 | 34025 ft | 425 kts | 281° |
| 2026-05-05 21:28 | 53.51607 | 0.15935 | 34033 ft | 425 kts | 281° |
| 2026-05-05 21:29 | 53.52909 | 0.06254 | 34032 ft | 425 kts | 281° |
| 2026-05-05 21:29 | 53.54161 | -0.03245 | 34041 ft | 425 kts | 282° |
| 2026-05-05 21:30 | 53.55431 | -0.12942 | 34051 ft | 425 kts | 282° |
| 2026-05-05 21:30 | 53.56698 | -0.22659 | 34050 ft | 425 kts | 281° |
| 2026-05-05 21:31 | 53.57958 | -0.32387 | 34047 ft | 426 kts | 281° |
| 2026-05-05 21:31 | 53.59208 | -0.42075 | 34051 ft | 426 kts | 281° |
| 2026-05-05 21:32 | 53.60460 | -0.51830 | 34047 ft | 427 kts | 281° |
| 2026-05-05 21:32 | 53.61705 | -0.61595 | 34048 ft | 426 kts | 281° |
| 2026-05-05 21:33 | 53.62941 | -0.71367 | 34051 ft | 426 kts | 281° |
| 2026-05-05 21:33 | 53.64170 | -0.81137 | 34053 ft | 426 kts | 281° |
| 2026-05-05 21:34 | 53.65389 | -0.90908 | 34055 ft | 426 kts | 281° |
| 2026-05-05 21:34 | 53.66602 | -1.00679 | 34057 ft | 426 kts | 281° |
| 2026-05-05 21:35 | 53.67808 | -1.10450 | 34066 ft | 425 kts | 281° |
| 2026-05-05 21:35 | 53.69006 | -1.20221 | 34071 ft | 425 kts | 281° |
| 2026-05-05 21:36 | 53.70196 | -1.29989 | 33538 ft | 430 kts | 281° |
| 2026-05-05 21:36 | 53.70792 | -1.34914 | 32890 ft | 427 kts | 281° |
| 2026-05-05 21:36 | 53.71622 | -1.39709 | 32218 ft | 426 kts | 296° |
| 2026-05-05 21:37 | 53.73219 | -1.43873 | 31731 ft | 422 kts | 309° |
| 2026-05-05 21:37 | 53.75393 | -1.47177 | 31172 ft | 422 kts | 323° |
| 2026-05-05 21:37 | 53.77871 | -1.49804 | 30658 ft | 419 kts | 326° |
| 2026-05-05 21:37 | 53.80378 | -1.52292 | 30100 ft | 416 kts | 327° |
| 2026-05-05 21:38 | 53.82870 | -1.54740 | 29475 ft | 412 kts | 327° |
| 2026-05-05 21:38 | 53.85329 | -1.57183 | 28911 ft | 407 kts | 326° |
| 2026-05-05 21:38 | 53.87744 | -1.59619 | 28365 ft | 402 kts | 326° |
| 2026-05-05 21:38 | 53.89326 | -1.61231 | 28000 ft | 399 kts | 326° |
| 2026-05-05 21:39 | 53.92447 | -1.64435 | 27270 ft | 393 kts | 325° |
| 2026-05-05 21:39 | 53.94771 | -1.66831 | 26724 ft | 389 kts | 325° |
| 2026-05-05 21:39 | 53.97076 | -1.69212 | 26183 ft | 386 kts | 325° |
| 2026-05-05 21:39 | 53.99363 | -1.71575 | 25663 ft | 383 kts | 325° |
| 2026-05-05 21:40 | 54.01627 | -1.73916 | 25136 ft | 380 kts | 325° |
| 2026-05-05 21:40 | 54.03884 | -1.76251 | 24573 ft | 380 kts | 325° |
| 2026-05-05 21:40 | 54.05409 | -1.77828 | 24197 ft | 380 kts | 325° |
| 2026-05-05 21:40 | 54.07668 | -1.80165 | 23623 ft | 379 kts | 325° |
| 2026-05-05 21:41 | 54.09914 | -1.82492 | 22954 ft | 377 kts | 325° |
| 2026-05-05 21:41 | 54.12164 | -1.84762 | 22356 ft | 375 kts | 331° |
| 2026-05-05 21:41 | 54.14661 | -1.86028 | 21804 ft | 377 kts | 350° |
| 2026-05-05 21:41 | 54.17283 | -1.85899 | 21217 ft | 379 kts | 6° |
| 2026-05-05 21:42 | 54.19840 | -1.85128 | 20661 ft | 377 kts | 8° |
| 2026-05-05 21:42 | 54.22299 | -1.84296 | 20107 ft | 375 kts | 8° |
| 2026-05-05 21:42 | 54.24890 | -1.83413 | 19555 ft | 372 kts | 8° |
| 2026-05-05 21:42 | 54.27387 | -1.82583 | 19002 ft | 369 kts | 8° |
| 2026-05-05 21:43 | 54.29904 | -1.81768 | 18446 ft | 367 kts | 8° |
| 2026-05-05 21:43 | 54.32404 | -1.80973 | 17828 ft | 364 kts | 7° |
| 2026-05-05 21:43 | 54.34886 | -1.80191 | 17241 ft | 361 kts | 7° |
| 2026-05-05 21:43 | 54.37340 | -1.79417 | 16687 ft | 357 kts | 7° |
| 2026-05-05 21:44 | 54.39769 | -1.78651 | 16149 ft | 353 kts | 7° |
| 2026-05-05 21:44 | 54.42180 | -1.77890 | 15454 ft | 353 kts | 7° |
| 2026-05-05 21:44 | 54.44599 | -1.77126 | 14750 ft | 354 kts | 7° |
| 2026-05-05 21:44 | 54.47025 | -1.76358 | 14061 ft | 355 kts | 7° |
| 2026-05-05 21:45 | 54.49454 | -1.75589 | 13284 ft | 355 kts | 7° |
| 2026-05-05 21:45 | 54.51881 | -1.74818 | 12512 ft | 354 kts | 8° |
| 2026-05-05 21:45 | 54.54298 | -1.74049 | 11910 ft | 350 kts | 8° |
| 2026-05-05 21:45 | 54.56654 | -1.73297 | 11483 ft | 340 kts | 8° |
| 2026-05-05 21:46 | 54.58950 | -1.72564 | 11056 ft | 332 kts | 8° |
| 2026-05-05 21:46 | 54.61195 | -1.71848 | 10651 ft | 324 kts | 8° |
| 2026-05-05 21:46 | 54.63385 | -1.71149 | 10255 ft | 317 kts | 8° |
| 2026-05-05 21:46 | 54.65526 | -1.70465 | 10025 ft | 305 kts | 8° |
| 2026-05-05 21:47 | 54.67546 | -1.69816 | 10014 ft | 287 kts | 8° |
| 2026-05-05 21:47 | 54.69464 | -1.69408 | 9916 ft | 270 kts | 353° |
| 2026-05-05 21:47 | 54.71222 | -1.70163 | 9821 ft | 252 kts | 336° |
| 2026-05-05 21:47 | 54.72733 | -1.71409 | 9555 ft | 239 kts | 331° |
| 2026-05-05 21:48 | 54.74165 | -1.72825 | 9094 ft | 236 kts | 319° |
| 2026-05-05 21:48 | 54.75255 | -1.74932 | 8672 ft | 235 kts | 316° |
| 2026-05-05 21:48 | 54.76588 | -1.76553 | 8291 ft | 236 kts | 328° |
| 2026-05-05 21:48 | 54.77973 | -1.78018 | 8105 ft | 229 kts | 328° |
| 2026-05-05 21:49 | 54.79322 | -1.79456 | 7900 ft | 228 kts | 328° |
| 2026-05-05 21:49 | 54.80677 | -1.80864 | 7623 ft | 225 kts | 333° |
| 2026-05-05 21:49 | 54.82096 | -1.82002 | 7180 ft | 224 kts | 336° |
| 2026-05-05 21:49 | 54.83521 | -1.83072 | 6743 ft | 223 kts | 336° |
| 2026-05-05 21:50 | 54.84937 | -1.84146 | 6327 ft | 221 kts | 336° |
| 2026-05-05 21:50 | 54.86341 | -1.85226 | 5844 ft | 221 kts | 336° |
| 2026-05-05 21:50 | 54.87747 | -1.86322 | 5371 ft | 221 kts | 337° |
| 2026-05-05 21:50 | 54.89119 | -1.87402 | 5184 ft | 207 kts | 337° |
| 2026-05-05 21:51 | 54.90376 | -1.88399 | 5037 ft | 190 kts | 337° |
| 2026-05-05 21:51 | 54.91557 | -1.89339 | 4682 ft | 185 kts | 338° |
| 2026-05-05 21:51 | 54.92710 | -1.90258 | 4322 ft | 180 kts | 338° |
| 2026-05-05 21:51 | 54.93847 | -1.91188 | 3822 ft | 183 kts | 333° |
| 2026-05-05 21:52 | 54.96017 | -1.93431 | 2838 ft | 185 kts | 5° |
| 2026-05-05 21:52 | 54.97042 | -1.92527 | 2807 ft | 158 kts | 49° |
| 2026-05-05 21:52 | 54.97679 | -1.91063 | 2780 ft | 149 kts | 56° |
| 2026-05-05 21:53 | 54.98210 | -1.89583 | 2723 ft | 139 kts | 57° |
| 2026-05-05 21:53 | 54.98690 | -1.88140 | 2566 ft | 139 kts | 60° |
| 2026-05-05 21:53 | 54.99116 | -1.86654 | 2381 ft | 137 kts | 62° |
| 2026-05-05 21:53 | 54.99519 | -1.85161 | 2193 ft | 136 kts | 63° |
| 2026-05-05 21:54 | 54.99905 | -1.83700 | 1993 ft | 131 kts | 63° |
| 2026-05-05 21:54 | 55.00264 | -1.82336 | 1829 ft | 121 kts | 63° |
| 2026-05-05 21:54 | 55.00609 | -1.81027 | 1669 ft | 118 kts | 63° |
| 2026-05-05 21:54 | 55.00955 | -1.79716 | 1502 ft | 120 kts | 63° |
| 2026-05-05 21:55 | 55.01304 | -1.78396 | 1325 ft | 120 kts | 63° |
| 2026-05-05 21:55 | 55.01656 | -1.77053 | 1124 ft | 125 kts | 64° |
| 2026-05-05 21:55 | 55.02007 | -1.75674 | 937 ft | 127 kts | 64° |
| 2026-05-05 21:55 | 55.02383 | -1.74281 | 683 ft | 129 kts | 64° |
| 2026-05-05 21:56 | 55.02695 | -1.73016 | 521 ft | 125 kts | 61° |
| 2026-05-05 21:56 | 55.03064 | -1.71719 | 399 ft | 126 kts | 67° |
| 2026-05-05 21:56 | 55.03358 | -1.70538 | 293 ft | 130 kts | 62° |
| 2026-05-05 21:56 | 55.03715 | -1.69243 | 254 ft | 115 kts | 61° |
| 2026-05-05 21:57 | 55.03998 | -1.68222 | 247 ft | 72 kts | 65° |
| 2026-05-05 21:57 | 55.04115 | -1.67780 | 246 ft | 34 kts | 65° |
| 2026-05-05 21:57 | 55.04206 | -1.67444 | 241 ft | 21 kts | 62° |
| 2026-05-05 21:57 | 55.04254 | -1.67389 | 240 ft | 7 kts | 30° |
| 2026-05-05 21:58 | 55.04299 | -1.67353 | 240 ft | 5 kts | 352° |
| 2026-05-05 21:58 | 55.04332 | -1.67520 | 241 ft | 22 kts | 272° |
| 2026-05-05 21:58 | 55.04295 | -1.67771 | 244 ft | 22 kts | 242° |
| 2026-05-05 21:58 | 55.04231 | -1.68004 | 246 ft | 21 kts | 245° |
| 2026-05-05 21:59 | 55.04171 | -1.68232 | 247 ft | 20 kts | 246° |
| 2026-05-05 21:59 | 55.04114 | -1.68454 | 247 ft | 20 kts | 246° |
| 2026-05-05 21:59 | 55.04057 | -1.68667 | 248 ft | 19 kts | 245° |
| 2026-05-05 21:59 | 55.04002 | -1.68873 | 250 ft | 18 kts | 245° |
| 2026-05-05 22:00 | 55.03949 | -1.69073 | 251 ft | 18 kts | 245° |
| 2026-05-05 22:00 | 55.03895 | -1.69273 | 253 ft | 19 kts | 245° |
| 2026-05-05 22:00 | 55.03842 | -1.69475 | 255 ft | 18 kts | 245° |
| 2026-05-05 22:00 | 55.03800 | -1.69676 | 257 ft | 17 kts | 255° |
| 2026-05-05 22:01 | 55.03779 | -1.69878 | 258 ft | 17 kts | 262° |
| 2026-05-05 22:01 | 55.03773 | -1.70076 | 261 ft | 16 kts | 271° |
| 2026-05-05 22:01 | 55.03779 | -1.70277 | 264 ft | 17 kts | 275° |
| 2026-05-05 22:01 | 55.03794 | -1.70472 | 266 ft | 16 kts | 283° |
| 2026-05-05 22:02 | 55.03802 | -1.70588 | 266 ft | 6 kts | 272° |
| 2026-05-05 22:02 | 55.03793 | -1.70656 | 266 ft | 6 kts | 269° |
| 2026-05-05 22:02 | 55.03797 | -1.70732 | 266 ft | 7 kts | 275° |
| 2026-05-05 22:02 | 55.03764 | -1.70759 | 266 ft | 4 kts | 173° |
| 2026-05-05 22:03 | 55.03745 | -1.70760 | 266 ft | 2 kts | 184° |
| 2026-05-05 22:03 | 55.03737 | -1.70760 | 266 ft | 1 kts | 184° |
| 2026-05-05 22:03 | 55.03734 | -1.70761 | 266 ft | 0 kts | 184° |